sensor_id;sensor_type;location;lat;lon;timestamp;P1;durP1;ratioP1;P2;durP2;ratioP2
12433;SDS011;6281;49.038;8.372;2024-03-23T00:54:20;6.93;;;4.00;;
12433;SDS011;6281;49.038;8.372;2024-03-23T00:56:47;5.27;;;4.27;;
12433;SDS011;6281;49.038;8.372;2024-03-23T00:59:13;5.47;;;3.90;;
12433;SDS011;6281;49.038;8.372;2024-03-23T01:01:40;7.53;;;4.53;;
12433;SDS011;6281;49.038;8.372;2024-03-23T01:04:05;6.23;;;4.17;;
12433;SDS011;6281;49.038;8.372;2024-03-23T01:06:32;7.27;;;4.17;;
12433;SDS011;6281;49.038;8.372;2024-03-23T01:09:00;5.30;;;4.20;;
12433;SDS011;6281;49.038;8.372;2024-03-23T01:11:27;6.83;;;3.90;;
12433;SDS011;6281;49.038;8.372;2024-03-23T01:13:53;6.03;;;3.37;;
12433;SDS011;6281;49.038;8.372;2024-03-23T01:16:21;5.63;;;4.27;;
12433;SDS011;6281;49.038;8.372;2024-03-23T01:18:47;6.80;;;4.23;;
12433;SDS011;6281;49.038;8.372;2024-03-23T01:21:13;6.10;;;4.20;;
12433;SDS011;6281;49.038;8.372;2024-03-23T01:23:39;5.17;;;3.77;;
12433;SDS011;6281;49.038;8.372;2024-03-23T01:26:08;6.70;;;4.13;;
12433;SDS011;6281;49.038;8.372;2024-03-23T01:28:34;7.27;;;3.90;;
12433;SDS011;6281;49.038;8.372;2024-03-23T01:31:01;7.40;;;3.87;;
12433;SDS011;6281;49.038;8.372;2024-03-23T01:33:28;6.33;;;4.27;;
12433;SDS011;6281;49.038;8.372;2024-03-23T01:35:54;4.70;;;3.93;;
12433;SDS011;6281;49.038;8.372;2024-03-23T01:38:20;7.73;;;4.70;;
12433;SDS011;6281;49.038;8.372;2024-03-23T01:40:47;9.70;;;4.70;;
12433;SDS011;6281;49.038;8.372;2024-03-23T01:43:15;5.60;;;4.37;;
12433;SDS011;6281;49.038;8.372;2024-03-23T01:45:42;6.67;;;5.10;;
12433;SDS011;6281;49.038;8.372;2024-03-23T01:48:07;6.67;;;4.77;;
12433;SDS011;6281;49.038;8.372;2024-03-23T01:50:37;6.47;;;4.33;;
12433;SDS011;6281;49.038;8.372;2024-03-23T01:53:03;6.40;;;4.70;;
12433;SDS011;6281;49.038;8.372;2024-03-23T01:55:32;5.40;;;4.63;;
12433;SDS011;6281;49.038;8.372;2024-03-23T01:57:58;7.33;;;4.60;;
12433;SDS011;6281;49.038;8.372;2024-03-23T02:00:26;8.23;;;4.17;;
12433;SDS011;6281;49.038;8.372;2024-03-23T02:02:53;7.80;;;4.90;;
12433;SDS011;6281;49.038;8.372;2024-03-23T02:05:20;6.80;;;4.97;;
12433;SDS011;6281;49.038;8.372;2024-03-23T02:07:45;7.17;;;4.50;;
12433;SDS011;6281;49.038;8.372;2024-03-23T02:10:12;10.30;;;5.27;;
12433;SDS011;6281;49.038;8.372;2024-03-23T02:12:38;7.13;;;5.07;;
12433;SDS011;6281;49.038;8.372;2024-03-23T02:15:05;6.80;;;4.70;;
12433;SDS011;6281;49.038;8.372;2024-03-23T02:17:34;6.40;;;4.90;;
12433;SDS011;6281;49.038;8.372;2024-03-23T02:20:02;6.27;;;5.20;;
12433;SDS011;6281;49.038;8.372;2024-03-23T02:22:35;6.80;;;4.80;;
12433;SDS011;6281;49.038;8.372;2024-03-23T02:25:04;4.13;;;3.50;;
12433;SDS011;6281;49.038;8.372;2024-03-23T02:27:30;6.77;;;5.33;;
12433;SDS011;6281;49.038;8.372;2024-03-23T02:29:58;5.47;;;4.60;;
12433;SDS011;6281;49.038;8.372;2024-03-23T02:32:23;6.37;;;4.10;;
12433;SDS011;6281;49.038;8.372;2024-03-23T02:34:50;5.73;;;4.57;;
12433;SDS011;6281;49.038;8.372;2024-03-23T02:37:16;5.20;;;4.40;;
12433;SDS011;6281;49.038;8.372;2024-03-23T02:39:43;5.53;;;4.67;;
12433;SDS011;6281;49.038;8.372;2024-03-23T02:42:10;9.97;;;4.77;;
12433;SDS011;6281;49.038;8.372;2024-03-23T02:44:36;12.17;;;4.80;;
12433;SDS011;6281;49.038;8.372;2024-03-23T02:47:02;6.67;;;4.50;;
12433;SDS011;6281;49.038;8.372;2024-03-23T02:49:29;7.53;;;5.00;;
12433;SDS011;6281;49.038;8.372;2024-03-23T02:51:55;7.40;;;4.63;;
12433;SDS011;6281;49.038;8.372;2024-03-23T02:54:22;6.13;;;4.93;;
12433;SDS011;6281;49.038;8.372;2024-03-23T02:56:48;6.27;;;4.80;;
12433;SDS011;6281;49.038;8.372;2024-03-23T02:59:16;4.90;;;3.93;;
12433;SDS011;6281;49.038;8.372;2024-03-23T03:01:42;7.67;;;4.67;;
12433;SDS011;6281;49.038;8.372;2024-03-23T03:04:08;6.57;;;5.10;;
12433;SDS011;6281;49.038;8.372;2024-03-23T03:06:34;9.60;;;5.30;;
12433;SDS011;6281;49.038;8.372;2024-03-23T03:09:01;7.00;;;5.60;;
12433;SDS011;6281;49.038;8.372;2024-03-23T03:11:27;6.87;;;5.67;;
12433;SDS011;6281;49.038;8.372;2024-03-23T03:13:54;11.00;;;6.47;;
12433;SDS011;6281;49.038;8.372;2024-03-23T03:16:21;8.23;;;6.13;;
12433;SDS011;6281;49.038;8.372;2024-03-23T03:18:47;9.97;;;6.27;;
12433;SDS011;6281;49.038;8.372;2024-03-23T03:21:13;9.13;;;6.47;;
12433;SDS011;6281;49.038;8.372;2024-03-23T03:23:41;9.57;;;6.20;;
12433;SDS011;6281;49.038;8.372;2024-03-23T03:26:07;9.80;;;6.70;;
12433;SDS011;6281;49.038;8.372;2024-03-23T03:28:34;8.40;;;6.07;;
12433;SDS011;6281;49.038;8.372;2024-03-23T03:31:00;9.00;;;6.73;;
12433;SDS011;6281;49.038;8.372;2024-03-23T03:33:28;10.20;;;6.80;;
12433;SDS011;6281;49.038;8.372;2024-03-23T03:35:54;9.40;;;6.93;;
12433;SDS011;6281;49.038;8.372;2024-03-23T03:38:21;8.63;;;6.23;;
12433;SDS011;6281;49.038;8.372;2024-03-23T03:40:47;9.50;;;6.47;;
12433;SDS011;6281;49.038;8.372;2024-03-23T03:43:14;9.67;;;6.13;;
12433;SDS011;6281;49.038;8.372;2024-03-23T03:45:40;8.83;;;6.43;;
12433;SDS011;6281;49.038;8.372;2024-03-23T03:48:06;7.87;;;5.80;;
12433;SDS011;6281;49.038;8.372;2024-03-23T03:50:34;8.43;;;6.07;;
12433;SDS011;6281;49.038;8.372;2024-03-23T03:53:01;7.13;;;5.37;;
12433;SDS011;6281;49.038;8.372;2024-03-23T03:55:26;9.20;;;5.97;;
12433;SDS011;6281;49.038;8.372;2024-03-23T03:57:53;10.40;;;6.67;;
12433;SDS011;6281;49.038;8.372;2024-03-23T04:00:19;8.83;;;6.27;;
12433;SDS011;6281;49.038;8.372;2024-03-23T04:02:46;10.23;;;6.33;;
12433;SDS011;6281;49.038;8.372;2024-03-23T04:05:12;12.97;;;8.57;;
12433;SDS011;6281;49.038;8.372;2024-03-23T04:07:41;12.07;;;7.50;;
12433;SDS011;6281;49.038;8.372;2024-03-23T04:10:07;11.17;;;6.93;;
12433;SDS011;6281;49.038;8.372;2024-03-23T04:12:34;13.13;;;8.03;;
12433;SDS011;6281;49.038;8.372;2024-03-23T04:15:00;12.50;;;7.87;;
12433;SDS011;6281;49.038;8.372;2024-03-23T04:17:28;12.30;;;8.47;;
12433;SDS011;6281;49.038;8.372;2024-03-23T04:19:57;13.27;;;7.87;;
12433;SDS011;6281;49.038;8.372;2024-03-23T04:22:24;10.80;;;7.30;;
12433;SDS011;6281;49.038;8.372;2024-03-23T04:24:52;11.30;;;7.57;;
12433;SDS011;6281;49.038;8.372;2024-03-23T04:27:19;10.40;;;6.33;;
12433;SDS011;6281;49.038;8.372;2024-03-23T04:29:46;11.40;;;7.17;;
12433;SDS011;6281;49.038;8.372;2024-03-23T04:32:14;11.60;;;6.80;;
12433;SDS011;6281;49.038;8.372;2024-03-23T04:34:39;9.63;;;5.73;;
12433;SDS011;6281;49.038;8.372;2024-03-23T04:37:06;11.50;;;7.83;;
12433;SDS011;6281;49.038;8.372;2024-03-23T04:39:33;11.33;;;7.33;;
12433;SDS011;6281;49.038;8.372;2024-03-23T04:42:01;8.27;;;5.73;;
12433;SDS011;6281;49.038;8.372;2024-03-23T04:44:28;10.33;;;5.67;;
12433;SDS011;6281;49.038;8.372;2024-03-23T04:46:55;8.97;;;6.50;;
12433;SDS011;6281;49.038;8.372;2024-03-23T04:49:22;9.57;;;6.43;;
12433;SDS011;6281;49.038;8.372;2024-03-23T04:51:49;9.27;;;5.97;;
12433;SDS011;6281;49.038;8.372;2024-03-23T04:54:16;7.73;;;5.73;;
12433;SDS011;6281;49.038;8.372;2024-03-23T04:56:42;8.93;;;4.47;;
12433;SDS011;6281;49.038;8.372;2024-03-23T04:59:11;6.90;;;4.70;;
12433;SDS011;6281;49.038;8.372;2024-03-23T05:01:37;4.83;;;2.47;;
12433;SDS011;6281;49.038;8.372;2024-03-23T05:04:07;5.13;;;3.73;;
12433;SDS011;6281;49.038;8.372;2024-03-23T05:06:33;2.67;;;1.90;;
12433;SDS011;6281;49.038;8.372;2024-03-23T05:09:00;2.30;;;1.77;;
12433;SDS011;6281;49.038;8.372;2024-03-23T05:11:28;1.47;;;1.37;;
12433;SDS011;6281;49.038;8.372;2024-03-23T05:13:55;1.63;;;1.37;;
12433;SDS011;6281;49.038;8.372;2024-03-23T05:16:23;2.07;;;1.40;;
12433;SDS011;6281;49.038;8.372;2024-03-23T05:18:49;2.40;;;1.50;;
12433;SDS011;6281;49.038;8.372;2024-03-23T05:21:15;4.30;;;1.10;;
12433;SDS011;6281;49.038;8.372;2024-03-23T05:23:42;1.50;;;1.17;;
12433;SDS011;6281;49.038;8.372;2024-03-23T05:26:08;1.77;;;1.30;;
12433;SDS011;6281;49.038;8.372;2024-03-23T05:28:35;1.67;;;1.20;;
12433;SDS011;6281;49.038;8.372;2024-03-23T05:31:01;1.53;;;1.10;;
12433;SDS011;6281;49.038;8.372;2024-03-23T05:33:30;2.00;;;1.20;;
12433;SDS011;6281;49.038;8.372;2024-03-23T05:35:56;1.93;;;1.47;;
12433;SDS011;6281;49.038;8.372;2024-03-23T05:38:24;1.70;;;1.17;;
12433;SDS011;6281;49.038;8.372;2024-03-23T05:40:53;1.43;;;1.07;;
12433;SDS011;6281;49.038;8.372;2024-03-23T05:43:20;1.90;;;1.20;;
12433;SDS011;6281;49.038;8.372;2024-03-23T05:45:52;1.00;;;0.90;;
12433;SDS011;6281;49.038;8.372;2024-03-23T05:48:20;1.33;;;0.90;;
12433;SDS011;6281;49.038;8.372;2024-03-23T05:50:47;0.87;;;0.87;;
12433;SDS011;6281;49.038;8.372;2024-03-23T05:53:14;0.83;;;0.80;;
12433;SDS011;6281;49.038;8.372;2024-03-23T05:55:40;1.33;;;0.83;;
12433;SDS011;6281;49.038;8.372;2024-03-23T05:58:07;1.40;;;0.70;;
12433;SDS011;6281;49.038;8.372;2024-03-23T06:00:33;2.43;;;1.30;;
12433;SDS011;6281;49.038;8.372;2024-03-23T06:03:00;1.53;;;0.77;;
12433;SDS011;6281;49.038;8.372;2024-03-23T06:05:26;0.90;;;0.83;;
12433;SDS011;6281;49.038;8.372;2024-03-23T06:07:55;0.77;;;0.67;;
12433;SDS011;6281;49.038;8.372;2024-03-23T06:10:20;2.87;;;1.00;;
12433;SDS011;6281;49.038;8.372;2024-03-23T06:12:47;1.20;;;0.70;;
12433;SDS011;6281;49.038;8.372;2024-03-23T06:15:14;1.00;;;0.60;;
12433;SDS011;6281;49.038;8.372;2024-03-23T06:17:41;1.63;;;0.53;;
12433;SDS011;6281;49.038;8.372;2024-03-23T06:20:07;0.87;;;0.73;;
12433;SDS011;6281;49.038;8.372;2024-03-23T06:22:35;1.10;;;0.73;;
12433;SDS011;6281;49.038;8.372;2024-03-23T06:25:03;1.13;;;0.90;;
12433;SDS011;6281;49.038;8.372;2024-03-23T06:27:30;2.93;;;0.90;;
12433;SDS011;6281;49.038;8.372;2024-03-23T06:29:57;0.70;;;0.60;;
12433;SDS011;6281;49.038;8.372;2024-03-23T06:32:24;2.70;;;0.80;;
12433;SDS011;6281;49.038;8.372;2024-03-23T06:34:51;0.60;;;0.60;;
12433;SDS011;6281;49.038;8.372;2024-03-23T06:37:17;0.50;;;0.50;;
12433;SDS011;6281;49.038;8.372;2024-03-23T06:39:45;0.80;;;0.70;;
12433;SDS011;6281;49.038;8.372;2024-03-23T06:42:13;0.70;;;0.70;;
12433;SDS011;6281;49.038;8.372;2024-03-23T06:44:40;1.07;;;0.97;;
12433;SDS011;6281;49.038;8.372;2024-03-23T06:47:06;0.70;;;0.53;;
12433;SDS011;6281;49.038;8.372;2024-03-23T06:49:33;0.80;;;0.80;;
12433;SDS011;6281;49.038;8.372;2024-03-23T06:51:59;1.10;;;0.43;;
12433;SDS011;6281;49.038;8.372;2024-03-23T06:54:26;0.53;;;0.30;;
12433;SDS011;6281;49.038;8.372;2024-03-23T06:56:51;0.93;;;0.40;;
12433;SDS011;6281;49.038;8.372;2024-03-23T06:59:20;0.30;;;0.30;;
12433;SDS011;6281;49.038;8.372;2024-03-23T07:01:46;0.53;;;0.53;;
12433;SDS011;6281;49.038;8.372;2024-03-23T07:04:12;0.87;;;0.40;;
12433;SDS011;6281;49.038;8.372;2024-03-23T07:06:42;0.80;;;0.50;;
12433;SDS011;6281;49.038;8.372;2024-03-23T07:09:09;0.63;;;0.43;;
12433;SDS011;6281;49.038;8.372;2024-03-23T07:11:35;0.87;;;0.50;;
12433;SDS011;6281;49.038;8.372;2024-03-23T07:14:02;0.40;;;0.40;;
12433;SDS011;6281;49.038;8.372;2024-03-23T07:16:30;0.57;;;0.30;;
12433;SDS011;6281;49.038;8.372;2024-03-23T07:18:56;0.33;;;0.20;;
12433;SDS011;6281;49.038;8.372;2024-03-23T07:21:23;0.33;;;0.33;;
12433;SDS011;6281;49.038;8.372;2024-03-23T07:23:49;0.47;;;0.20;;
12433;SDS011;6281;49.038;8.372;2024-03-23T07:26:16;1.50;;;0.37;;
12433;SDS011;6281;49.038;8.372;2024-03-23T07:28:43;0.30;;;0.20;;
12433;SDS011;6281;49.038;8.372;2024-03-23T07:31:11;0.40;;;0.20;;
12433;SDS011;6281;49.038;8.372;2024-03-23T07:33:42;0.30;;;0.30;;
12433;SDS011;6281;49.038;8.372;2024-03-23T07:36:10;0.30;;;0.30;;
12433;SDS011;6281;49.038;8.372;2024-03-23T07:38:36;0.40;;;0.20;;
12433;SDS011;6281;49.038;8.372;2024-03-23T07:41:04;0.87;;;0.30;;
12433;SDS011;6281;49.038;8.372;2024-03-23T07:43:30;0.30;;;0.20;;
12433;SDS011;6281;49.038;8.372;2024-03-23T07:45:58;1.47;;;0.30;;
12433;SDS011;6281;49.038;8.372;2024-03-23T07:48:24;0.33;;;0.30;;
12433;SDS011;6281;49.038;8.372;2024-03-23T07:51:02;0.50;;;0.37;;
12433;SDS011;6281;49.038;8.372;2024-03-23T07:53:29;3.20;;;0.50;;
12433;SDS011;6281;49.038;8.372;2024-03-23T07:55:57;0.30;;;0.20;;
12433;SDS011;6281;49.038;8.372;2024-03-23T07:58:24;1.70;;;0.70;;
12433;SDS011;6281;49.038;8.372;2024-03-23T08:00:52;2.43;;;0.60;;
12433;SDS011;6281;49.038;8.372;2024-03-23T08:03:18;0.70;;;0.60;;
12433;SDS011;6281;49.038;8.372;2024-03-23T08:05:45;0.83;;;0.50;;
12433;SDS011;6281;49.038;8.372;2024-03-23T08:08:12;2.47;;;1.00;;
12433;SDS011;6281;49.038;8.372;2024-03-23T08:10:47;1.43;;;0.53;;
12433;SDS011;6281;49.038;8.372;2024-03-23T08:13:13;1.20;;;0.60;;
12433;SDS011;6281;49.038;8.372;2024-03-23T08:15:40;4.60;;;1.50;;
12433;SDS011;6281;49.038;8.372;2024-03-23T08:18:06;3.57;;;1.30;;
12433;SDS011;6281;49.038;8.372;2024-03-23T08:20:33;4.90;;;1.30;;
12433;SDS011;6281;49.038;8.372;2024-03-23T08:22:59;3.13;;;1.40;;
12433;SDS011;6281;49.038;8.372;2024-03-23T08:25:27;2.70;;;0.80;;
12433;SDS011;6281;49.038;8.372;2024-03-23T08:27:55;3.33;;;1.23;;
12433;SDS011;6281;49.038;8.372;2024-03-23T08:30:22;4.97;;;1.57;;
12433;SDS011;6281;49.038;8.372;2024-03-23T08:32:48;2.70;;;1.50;;
12433;SDS011;6281;49.038;8.372;2024-03-23T08:35:15;6.20;;;2.70;;
12433;SDS011;6281;49.038;8.372;2024-03-23T08:37:40;5.07;;;1.80;;
12433;SDS011;6281;49.038;8.372;2024-03-23T08:40:08;5.00;;;2.17;;
12433;SDS011;6281;49.038;8.372;2024-03-23T08:42:35;4.20;;;2.13;;
12433;SDS011;6281;49.038;8.372;2024-03-23T08:45:02;3.20;;;2.30;;
12433;SDS011;6281;49.038;8.372;2024-03-23T08:47:28;5.50;;;2.50;;
12433;SDS011;6281;49.038;8.372;2024-03-23T08:49:55;6.23;;;3.10;;
12433;SDS011;6281;49.038;8.372;2024-03-23T08:52:23;5.77;;;2.23;;
12433;SDS011;6281;49.038;8.372;2024-03-23T08:54:52;8.63;;;3.17;;
12433;SDS011;6281;49.038;8.372;2024-03-23T08:57:18;3.77;;;2.07;;
12433;SDS011;6281;49.038;8.372;2024-03-23T08:59:46;4.53;;;1.90;;
12433;SDS011;6281;49.038;8.372;2024-03-23T09:02:11;5.13;;;1.80;;
12433;SDS011;6281;49.038;8.372;2024-03-23T09:04:38;3.77;;;1.50;;
12433;SDS011;6281;49.038;8.372;2024-03-23T09:07:04;5.00;;;1.93;;
12433;SDS011;6281;49.038;8.372;2024-03-23T09:09:31;5.63;;;2.10;;
12433;SDS011;6281;49.038;8.372;2024-03-23T09:11:57;3.40;;;1.37;;
12433;SDS011;6281;49.038;8.372;2024-03-23T09:14:23;7.43;;;2.40;;
12433;SDS011;6281;49.038;8.372;2024-03-23T09:16:50;4.80;;;2.37;;
12433;SDS011;6281;49.038;8.372;2024-03-23T09:19:17;5.17;;;2.20;;
12433;SDS011;6281;49.038;8.372;2024-03-23T09:21:43;4.57;;;2.00;;
12433;SDS011;6281;49.038;8.372;2024-03-23T09:24:10;4.47;;;2.20;;
12433;SDS011;6281;49.038;8.372;2024-03-23T09:26:36;7.50;;;2.50;;
12433;SDS011;6281;49.038;8.372;2024-03-23T09:29:02;4.17;;;2.30;;
12433;SDS011;6281;49.038;8.372;2024-03-23T09:31:29;6.23;;;1.73;;
12433;SDS011;6281;49.038;8.372;2024-03-23T09:33:57;2.73;;;1.17;;
12433;SDS011;6281;49.038;8.372;2024-03-23T09:36:23;3.80;;;2.03;;
12433;SDS011;6281;49.038;8.372;2024-03-23T09:38:50;3.20;;;1.90;;
12433;SDS011;6281;49.038;8.372;2024-03-23T09:41:16;3.03;;;1.77;;
12433;SDS011;6281;49.038;8.372;2024-03-23T09:43:42;2.87;;;1.83;;
12433;SDS011;6281;49.038;8.372;2024-03-23T09:46:08;12.40;;;3.30;;
12433;SDS011;6281;49.038;8.372;2024-03-23T09:48:35;7.17;;;2.87;;
12433;SDS011;6281;49.038;8.372;2024-03-23T09:51:03;8.97;;;2.97;;
12433;SDS011;6281;49.038;8.372;2024-03-23T09:53:33;5.20;;;2.50;;
12433;SDS011;6281;49.038;8.372;2024-03-23T09:55:58;8.30;;;2.50;;
12433;SDS011;6281;49.038;8.372;2024-03-23T09:58:25;6.20;;;2.80;;
12433;SDS011;6281;49.038;8.372;2024-03-23T10:00:51;5.17;;;2.60;;
12433;SDS011;6281;49.038;8.372;2024-03-23T10:03:18;8.07;;;3.27;;
12433;SDS011;6281;49.038;8.372;2024-03-23T10:05:45;7.67;;;3.30;;
12433;SDS011;6281;49.038;8.372;2024-03-23T10:08:18;9.57;;;3.07;;
12433;SDS011;6281;49.038;8.372;2024-03-23T10:10:45;7.47;;;3.43;;
12433;SDS011;6281;49.038;8.372;2024-03-23T10:13:12;7.30;;;2.50;;
12433;SDS011;6281;49.038;8.372;2024-03-23T10:15:54;5.27;;;2.50;;
12433;SDS011;6281;49.038;8.372;2024-03-23T10:18:21;5.17;;;2.40;;
12433;SDS011;6281;49.038;8.372;2024-03-23T10:20:50;3.63;;;2.00;;
12433;SDS011;6281;49.038;8.372;2024-03-23T10:23:19;4.80;;;2.30;;
12433;SDS011;6281;49.038;8.372;2024-03-23T10:25:46;3.77;;;1.90;;
12433;SDS011;6281;49.038;8.372;2024-03-23T10:28:11;5.43;;;2.40;;
12433;SDS011;6281;49.038;8.372;2024-03-23T10:30:38;5.07;;;1.63;;
12433;SDS011;6281;49.038;8.372;2024-03-23T10:33:07;3.23;;;1.60;;
12433;SDS011;6281;49.038;8.372;2024-03-23T10:35:34;2.60;;;1.43;;
12433;SDS011;6281;49.038;8.372;2024-03-23T10:38:02;3.40;;;1.70;;
12433;SDS011;6281;49.038;8.372;2024-03-23T10:40:32;3.27;;;1.60;;
12433;SDS011;6281;49.038;8.372;2024-03-23T10:43:00;2.97;;;1.80;;
12433;SDS011;6281;49.038;8.372;2024-03-23T10:45:29;4.00;;;1.93;;
12433;SDS011;6281;49.038;8.372;2024-03-23T10:47:56;5.70;;;2.50;;
12433;SDS011;6281;49.038;8.372;2024-03-23T10:50:21;4.50;;;2.47;;
12433;SDS011;6281;49.038;8.372;2024-03-23T10:52:49;2.63;;;1.80;;
12433;SDS011;6281;49.038;8.372;2024-03-23T10:55:18;6.57;;;2.67;;
12433;SDS011;6281;49.038;8.372;2024-03-23T10:57:49;4.13;;;2.30;;
12433;SDS011;6281;49.038;8.372;2024-03-23T11:00:18;6.83;;;2.27;;
12433;SDS011;6281;49.038;8.372;2024-03-23T11:02:46;2.30;;;1.73;;
12433;SDS011;6281;49.038;8.372;2024-03-23T11:05:28;3.73;;;1.77;;
12433;SDS011;6281;49.038;8.372;2024-03-23T11:07:56;5.77;;;1.83;;
12433;SDS011;6281;49.038;8.372;2024-03-23T11:10:25;6.57;;;1.77;;
12433;SDS011;6281;49.038;8.372;2024-03-23T11:12:55;3.57;;;1.53;;
12433;SDS011;6281;49.038;8.372;2024-03-23T11:15:21;3.93;;;1.97;;
12433;SDS011;6281;49.038;8.372;2024-03-23T11:18:05;4.87;;;1.57;;
12433;SDS011;6281;49.038;8.372;2024-03-23T11:20:33;2.97;;;1.40;;
12433;SDS011;6281;49.038;8.372;2024-03-23T11:23:00;3.60;;;1.63;;
12433;SDS011;6281;49.038;8.372;2024-03-23T11:25:27;5.30;;;1.53;;
12433;SDS011;6281;49.038;8.372;2024-03-23T11:27:56;4.90;;;1.97;;
12433;SDS011;6281;49.038;8.372;2024-03-23T11:30:23;4.87;;;1.70;;
12433;SDS011;6281;49.038;8.372;2024-03-23T11:32:50;4.70;;;1.87;;
12433;SDS011;6281;49.038;8.372;2024-03-23T11:35:25;4.20;;;1.93;;
12433;SDS011;6281;49.038;8.372;2024-03-23T11:40:44;3.90;;;2.03;;
12433;SDS011;6281;49.038;8.372;2024-03-23T11:43:13;6.77;;;2.33;;
12433;SDS011;6281;49.038;8.372;2024-03-23T11:45:42;6.50;;;2.13;;
12433;SDS011;6281;49.038;8.372;2024-03-23T11:48:10;4.60;;;1.83;;
12433;SDS011;6281;49.038;8.372;2024-03-23T11:50:38;9.03;;;2.13;;
12433;SDS011;6281;49.038;8.372;2024-03-23T11:53:07;3.87;;;1.70;;
12433;SDS011;6281;49.038;8.372;2024-03-23T11:55:44;3.10;;;1.57;;
12433;SDS011;6281;49.038;8.372;2024-03-23T11:58:14;4.30;;;1.57;;
12433;SDS011;6281;49.038;8.372;2024-03-23T12:00:43;4.80;;;2.00;;
12433;SDS011;6281;49.038;8.372;2024-03-23T12:03:17;3.17;;;1.90;;
12433;SDS011;6281;49.038;8.372;2024-03-23T12:05:46;4.90;;;1.83;;
12433;SDS011;6281;49.038;8.372;2024-03-23T12:08:29;6.07;;;2.00;;
12433;SDS011;6281;49.038;8.372;2024-03-23T12:11:04;5.93;;;1.70;;
12433;SDS011;6281;49.038;8.372;2024-03-23T12:13:33;8.53;;;2.07;;
12433;SDS011;6281;49.038;8.372;2024-03-23T12:16:08;4.43;;;1.70;;
12433;SDS011;6281;49.038;8.372;2024-03-23T12:18:35;5.37;;;1.80;;
12433;SDS011;6281;49.038;8.372;2024-03-23T12:21:02;7.67;;;1.80;;
12433;SDS011;6281;49.038;8.372;2024-03-23T12:23:29;5.53;;;2.10;;
12433;SDS011;6281;49.038;8.372;2024-03-23T12:25:55;5.10;;;1.83;;
12433;SDS011;6281;49.038;8.372;2024-03-23T12:28:22;6.13;;;1.50;;
12433;SDS011;6281;49.038;8.372;2024-03-23T12:30:49;2.93;;;1.20;;
12433;SDS011;6281;49.038;8.372;2024-03-23T12:33:17;3.03;;;1.30;;
12433;SDS011;6281;49.038;8.372;2024-03-23T12:35:42;4.27;;;1.57;;
12433;SDS011;6281;49.038;8.372;2024-03-23T12:38:09;6.70;;;1.20;;
12433;SDS011;6281;49.038;8.372;2024-03-23T12:40:35;3.13;;;1.40;;
12433;SDS011;6281;49.038;8.372;2024-03-23T12:43:02;2.33;;;1.00;;
12433;SDS011;6281;49.038;8.372;2024-03-23T12:45:28;1.77;;;0.83;;
12433;SDS011;6281;49.038;8.372;2024-03-23T12:47:56;6.03;;;1.77;;
12433;SDS011;6281;49.038;8.372;2024-03-23T12:50:23;1.20;;;0.73;;
12433;SDS011;6281;49.038;8.372;2024-03-23T12:52:49;1.43;;;0.67;;
12433;SDS011;6281;49.038;8.372;2024-03-23T12:55:16;8.87;;;0.57;;
12433;SDS011;6281;49.038;8.372;2024-03-23T12:57:43;3.30;;;0.80;;
12433;SDS011;6281;49.038;8.372;2024-03-23T13:00:11;1.17;;;0.67;;
12433;SDS011;6281;49.038;8.372;2024-03-23T13:02:38;1.30;;;0.60;;
12433;SDS011;6281;49.038;8.372;2024-03-23T13:05:08;0.73;;;0.43;;
12433;SDS011;6281;49.038;8.372;2024-03-23T13:07:34;0.63;;;0.40;;
12433;SDS011;6281;49.038;8.372;2024-03-23T13:10:03;0.77;;;0.50;;
12433;SDS011;6281;49.038;8.372;2024-03-23T13:12:30;1.10;;;0.60;;
12433;SDS011;6281;49.038;8.372;2024-03-23T13:14:58;0.80;;;0.60;;
12433;SDS011;6281;49.038;8.372;2024-03-23T13:17:24;3.37;;;0.50;;
12433;SDS011;6281;49.038;8.372;2024-03-23T13:19:53;1.60;;;0.60;;
12433;SDS011;6281;49.038;8.372;2024-03-23T13:22:22;0.40;;;0.20;;
12433;SDS011;6281;49.038;8.372;2024-03-23T13:24:50;2.60;;;0.60;;
12433;SDS011;6281;49.038;8.372;2024-03-23T13:27:18;4.27;;;0.97;;
12433;SDS011;6281;49.038;8.372;2024-03-23T13:29:45;1.53;;;0.77;;
12433;SDS011;6281;49.038;8.372;2024-03-23T13:32:12;2.13;;;0.70;;
12433;SDS011;6281;49.038;8.372;2024-03-23T13:34:40;2.87;;;0.80;;
12433;SDS011;6281;49.038;8.372;2024-03-23T13:37:06;1.43;;;0.57;;
12433;SDS011;6281;49.038;8.372;2024-03-23T13:39:36;2.63;;;0.83;;
12433;SDS011;6281;49.038;8.372;2024-03-23T13:42:02;2.27;;;0.93;;
12433;SDS011;6281;49.038;8.372;2024-03-23T13:44:31;1.13;;;0.80;;
12433;SDS011;6281;49.038;8.372;2024-03-23T13:46:57;3.23;;;0.70;;
12433;SDS011;6281;49.038;8.372;2024-03-23T13:49:25;3.30;;;0.80;;
12433;SDS011;6281;49.038;8.372;2024-03-23T13:51:52;1.87;;;0.53;;
12433;SDS011;6281;49.038;8.372;2024-03-23T13:54:22;1.77;;;0.53;;
12433;SDS011;6281;49.038;8.372;2024-03-23T13:56:50;2.63;;;0.80;;
12433;SDS011;6281;49.038;8.372;2024-03-23T13:59:19;1.73;;;0.50;;
12433;SDS011;6281;49.038;8.372;2024-03-23T14:01:46;1.93;;;0.60;;
12433;SDS011;6281;49.038;8.372;2024-03-23T14:04:13;1.83;;;0.87;;
12433;SDS011;6281;49.038;8.372;2024-03-23T14:06:41;4.13;;;1.00;;
12433;SDS011;6281;49.038;8.372;2024-03-23T14:09:10;1.80;;;0.57;;
12433;SDS011;6281;49.038;8.372;2024-03-23T14:11:39;0.90;;;0.50;;
12433;SDS011;6281;49.038;8.372;2024-03-23T14:14:09;1.80;;;0.90;;
12433;SDS011;6281;49.038;8.372;2024-03-23T14:16:35;2.77;;;0.93;;
12433;SDS011;6281;49.038;8.372;2024-03-23T14:19:03;0.83;;;0.50;;
12433;SDS011;6281;49.038;8.372;2024-03-23T14:21:30;2.10;;;0.43;;
12433;SDS011;6281;49.038;8.372;2024-03-23T14:23:59;3.27;;;0.73;;
12433;SDS011;6281;49.038;8.372;2024-03-23T14:26:29;1.47;;;0.53;;
12433;SDS011;6281;49.038;8.372;2024-03-23T14:28:55;1.53;;;0.50;;
12433;SDS011;6281;49.038;8.372;2024-03-23T14:31:25;2.27;;;0.30;;
12433;SDS011;6281;49.038;8.372;2024-03-23T14:33:51;1.10;;;0.40;;
12433;SDS011;6281;49.038;8.372;2024-03-23T14:36:20;0.60;;;0.40;;
12433;SDS011;6281;49.038;8.372;2024-03-23T14:38:47;0.60;;;0.30;;
12433;SDS011;6281;49.038;8.372;2024-03-23T14:41:15;0.77;;;0.50;;
12433;SDS011;6281;49.038;8.372;2024-03-23T14:43:41;0.50;;;0.40;;
12433;SDS011;6281;49.038;8.372;2024-03-23T14:46:09;0.87;;;0.40;;
12433;SDS011;6281;49.038;8.372;2024-03-23T14:48:39;1.03;;;0.40;;
12433;SDS011;6281;49.038;8.372;2024-03-23T14:51:09;0.90;;;0.37;;
12433;SDS011;6281;49.038;8.372;2024-03-23T14:53:36;0.90;;;0.30;;
12433;SDS011;6281;49.038;8.372;2024-03-23T14:56:05;1.10;;;0.60;;
12433;SDS011;6281;49.038;8.372;2024-03-23T14:58:32;1.20;;;0.50;;
12433;SDS011;6281;49.038;8.372;2024-03-23T15:01:01;2.93;;;0.90;;
12433;SDS011;6281;49.038;8.372;2024-03-23T15:03:28;2.13;;;1.40;;
12433;SDS011;6281;49.038;8.372;2024-03-23T15:05:57;2.10;;;0.70;;
12433;SDS011;6281;49.038;8.372;2024-03-23T15:08:25;2.77;;;1.13;;
12433;SDS011;6281;49.038;8.372;2024-03-23T15:10:53;2.30;;;0.57;;
12433;SDS011;6281;49.038;8.372;2024-03-23T15:13:19;1.30;;;0.70;;
12433;SDS011;6281;49.038;8.372;2024-03-23T15:15:48;2.90;;;1.07;;
12433;SDS011;6281;49.038;8.372;2024-03-23T15:18:14;4.30;;;0.87;;
12433;SDS011;6281;49.038;8.372;2024-03-23T15:20:51;0.93;;;0.40;;
12433;SDS011;6281;49.038;8.372;2024-03-23T15:23:20;1.10;;;0.70;;
12433;SDS011;6281;49.038;8.372;2024-03-23T15:25:53;2.13;;;0.90;;
12433;SDS011;6281;49.038;8.372;2024-03-23T15:28:20;3.80;;;1.10;;
12433;SDS011;6281;49.038;8.372;2024-03-23T15:30:47;2.73;;;0.80;;
12433;SDS011;6281;49.038;8.372;2024-03-23T15:33:13;1.90;;;0.73;;
12433;SDS011;6281;49.038;8.372;2024-03-23T15:35:41;2.23;;;0.70;;
12433;SDS011;6281;49.038;8.372;2024-03-23T15:38:07;2.10;;;0.70;;
12433;SDS011;6281;49.038;8.372;2024-03-23T15:40:36;5.27;;;0.70;;
12433;SDS011;6281;49.038;8.372;2024-03-23T15:43:02;1.40;;;0.90;;
12433;SDS011;6281;49.038;8.372;2024-03-23T15:45:30;1.30;;;0.87;;
12433;SDS011;6281;49.038;8.372;2024-03-23T15:47:57;1.50;;;0.70;;
12433;SDS011;6281;49.038;8.372;2024-03-23T15:50:25;1.07;;;0.80;;
12433;SDS011;6281;49.038;8.372;2024-03-23T15:52:51;3.37;;;1.17;;
12433;SDS011;6281;49.038;8.372;2024-03-23T15:55:20;6.03;;;1.20;;
12433;SDS011;6281;49.038;8.372;2024-03-23T15:57:48;3.10;;;1.23;;